Time;durP1;ratioP1;P1;durP2;ratioP2;P2;SDS_P1;SDS_P2;PMS_P1;PMS_P2;Temp;Humidity;BMP_temperature;BMP_pressure;BME280_temperature;BME280_humidity;BME280_pressure;Samples;Min_cycle;Max_cycle;Signal;HPM_P1;HPM_P2
2023/05/04 03:01:27;;;;;;;15.52;7.13;;;6.80;99.90;;;;;;5495953;23;20133;-84
2023/05/04 03:03:52;;;;;;;10.95;6.32;;;6.80;99.90;;;;;;4941859;29;20075;-84
2023/05/04 03:06:18;;;;;;;11.18;5.82;;;6.80;99.90;;;;;;4942191;29;20122;-83
2023/05/04 03:08:43;;;;;;;15.15;6.82;;;6.80;99.90;;;;;;4925173;29;20103;-84
2023/05/04 03:11:09;;;;;;;15.98;6.30;;;6.70;99.90;;;;;;4940901;29;20047;-83
2023/05/04 03:13:35;;;;;;;15.18;6.97;;;6.70;99.90;;;;;;4941232;29;20042;-83
2023/05/04 03:16:01;;;;;;;14.68;6.05;;;6.70;99.90;;;;;;4940402;29;20043;-84
2023/05/04 03:18:26;;;;;;;11.02;6.30;;;6.80;99.90;;;;;;4958183;29;20038;-84
2023/05/04 03:20:52;;;;;;;14.90;7.40;;;6.80;99.90;;;;;;4941037;29;20046;-83
2023/05/04 03:23:17;;;;;;;17.15;7.53;;;6.80;99.90;;;;;;4924790;29;20324;-85
2023/05/04 03:25:43;;;;;;;13.95;7.05;;;6.80;99.90;;;;;;4958069;29;20035;-86
2023/05/04 03:28:09;;;;;;;17.90;7.20;;;6.80;99.90;;;;;;4940498;29;20050;-85
2023/05/04 03:30:35;;;;;;;15.23;6.38;;;6.80;99.90;;;;;;4941216;28;20470;-83
2023/05/04 03:33:01;;;;;;;13.07;6.55;;;6.80;99.90;;;;;;4941157;29;20122;-84
2023/05/04 03:35:27;;;;;;;13.23;6.75;;;6.70;99.90;;;;;;4940282;29;20039;-85
2023/05/04 03:37:52;;;;;;;13.18;6.45;;;6.70;99.90;;;;;;4940257;29;20046;-84
2023/05/04 03:40:21;;;;;;;17.30;6.50;;;6.70;99.90;;;;;;4957665;29;20039;-84
2023/05/04 03:42:47;;;;;;;16.30;6.68;;;6.70;99.90;;;;;;4921368;29;20047;-84
2023/05/04 03:45:13;;;;;;;13.40;6.50;;;6.70;99.90;;;;;;4921523;29;20083;-84
2023/05/04 03:47:39;;;;;;;11.43;6.32;;;6.70;99.90;;;;;;4921507;29;20058;-83
2023/05/04 03:50:05;;;;;;;12.68;6.90;;;6.60;99.90;;;;;;4921251;29;20052;-84
2023/05/04 03:52:30;;;;;;;13.35;6.10;;;6.70;99.90;;;;;;4951627;29;20126;-83
2023/05/04 03:54:56;;;;;;;15.85;7.13;;;6.70;99.90;;;;;;4957807;29;20085;-84
2023/05/04 03:57:23;;;;;;;20.83;6.50;;;6.60;99.90;;;;;;4940595;29;20054;-84
2023/05/04 03:59:49;;;;;;;13.10;6.05;;;6.60;99.90;;;;;;4940978;29;20043;-84
2023/05/04 04:02:16;;;;;;;16.83;6.90;;;6.60;99.90;;;;;;4955168;28;20054;-83
2023/05/04 04:04:41;;;;;;;13.63;6.53;;;6.60;99.90;;;;;;4940408;29;20066;-83
2023/05/04 04:07:07;;;;;;;15.70;6.95;;;6.60;99.90;;;;;;4940491;29;20039;-84
2023/05/04 04:09:33;;;;;;;14.57;6.80;;;6.60;99.90;;;;;;4957873;29;20039;-85
2023/05/04 04:11:59;;;;;;;16.90;6.43;;;6.60;99.90;;;;;;4924149;29;20047;-85
2023/05/04 04:14:25;;;;;;;14.80;6.47;;;6.60;99.90;;;;;;4957585;29;20072;-84
2023/05/04 04:16:51;;;;;;;19.52;7.30;;;6.60;99.90;;;;;;4940010;29;20080;-84
2023/05/04 04:19:17;;;;;;;16.23;7.00;;;6.60;99.90;;;;;;4939851;29;20074;-84
2023/05/04 04:21:42;;;;;;;17.48;7.22;;;6.60;99.90;;;;;;4957317;28;20043;-84
2023/05/04 04:24:11;;;;;;;13.23;6.97;;;6.60;99.90;;;;;;4939895;29;20081;-84
2023/05/04 04:26:36;;;;;;;13.00;6.72;;;6.60;99.90;;;;;;4939460;29;20058;-83
2023/05/04 04:29:02;;;;;;;12.57;6.75;;;6.60;99.90;;;;;;4956811;29;20035;-85
2023/05/04 04:31:29;;;;;;;15.88;6.85;;;6.60;99.90;;;;;;4939755;29;20126;-85
2023/05/04 04:33:55;;;;;;;16.33;7.45;;;6.60;99.90;;;;;;4956442;28;20039;-83
2023/05/04 04:36:21;;;;;;;17.55;7.18;;;6.60;99.90;;;;;;4923687;29;20039;-84
2023/05/04 04:38:46;;;;;;;13.20;7.10;;;6.60;99.90;;;;;;4939474;29;20055;-86
2023/05/04 04:41:12;;;;;;;13.85;6.78;;;6.60;99.90;;;;;;4939713;29;20427;-85
2023/05/04 04:43:39;;;;;;;17.80;7.25;;;6.60;99.90;;;;;;4923597;29;20042;-82
2023/05/04 04:46:05;;;;;;;15.00;7.28;;;6.70;99.90;;;;;;4956824;29;20046;-84
2023/05/04 04:48:30;;;;;;;17.48;7.65;;;6.60;99.90;;;;;;4923566;29;20450;-84
2023/05/04 04:50:56;;;;;;;14.55;7.22;;;6.60;99.90;;;;;;4938754;29;20062;-84
2023/05/04 04:53:22;;;;;;;18.25;7.88;;;6.70;99.90;;;;;;4939318;29;20038;-85
2023/05/04 04:55:47;;;;;;;14.80;7.38;;;6.70;99.90;;;;;;4939066;29;20141;-84
2023/05/04 04:58:13;;;;;;;13.23;7.10;;;6.70;99.90;;;;;;4956586;29;20134;-84
2023/05/04 05:00:39;;;;;;;15.50;7.63;;;6.70;99.90;;;;;;4956695;29;20039;-85
2023/05/04 05:03:04;;;;;;;17.52;8.02;;;6.80;99.90;;;;;;4956301;29;20039;-78
2023/05/04 05:05:30;;;;;;;19.25;7.18;;;6.80;99.90;;;;;;4956827;29;20114;-84
2023/05/04 05:07:56;;;;;;;16.45;7.70;;;6.90;99.90;;;;;;4957693;29;20043;-79
2023/05/04 05:10:22;;;;;;;17.55;8.15;;;6.90;99.90;;;;;;4939980;29;20050;-84
2023/05/04 05:12:51;;;;;;;15.38;7.47;;;6.90;99.90;;;;;;4922771;29;20126;-84
2023/05/04 05:15:16;;;;;;;12.15;7.38;;;7.00;99.90;;;;;;4938431;29;20039;-83
2023/05/04 05:17:42;;;;;;;14.80;6.88;;;7.00;99.90;;;;;;4939062;29;20035;-82
2023/05/04 05:20:10;;;;;;;16.15;7.57;;;7.00;99.90;;;;;;4956109;29;20149;-83
2023/05/04 05:22:36;;;;;;;17.30;6.90;;;7.00;99.90;;;;;;4903676;29;20394;-82
2023/05/04 05:25:03;;;;;;;25.17;9.68;;;7.10;99.90;;;;;;4919341;29;20059;-83
2023/05/04 05:27:28;;;;;;;16.20;7.95;;;7.10;99.90;;;;;;4947160;29;20047;-83
2023/05/04 05:29:54;;;;;;;16.63;7.88;;;7.10;99.90;;;;;;4955581;29;20426;-83
2023/05/04 05:32:20;;;;;;;16.27;7.68;;;7.20;99.90;;;;;;4938074;29;20039;-84
2023/05/04 05:34:46;;;;;;;16.83;9.25;;;7.20;99.90;;;;;;4937952;29;20043;-83
2023/05/04 05:37:11;;;;;;;16.25;7.95;;;7.20;99.90;;;;;;4955246;29;20108;-81
2023/05/04 05:39:37;;;;;;;19.48;7.88;;;7.30;99.90;;;;;;4937424;29;20094;-83
2023/05/04 05:42:03;;;;;;;20.00;8.55;;;7.30;99.90;;;;;;4937843;29;20491;-84
2023/05/04 05:44:28;;;;;;;17.02;7.85;;;7.40;99.90;;;;;;4937702;29;20114;-83
2023/05/04 05:46:55;;;;;;;16.10;8.00;;;7.40;99.90;;;;;;4939128;29;20074;-82
2023/05/04 05:49:20;;;;;;;15.07;7.90;;;7.50;99.90;;;;;;4941944;29;20050;-82
2023/05/04 05:51:46;;;;;;;14.88;7.55;;;7.50;99.90;;;;;;4941695;29;20035;-82
2023/05/04 05:54:12;;;;;;;19.00;8.80;;;7.60;99.90;;;;;;4959566;29;20368;-81
2023/05/04 05:56:38;;;;;;;17.60;8.45;;;7.60;99.90;;;;;;4941758;29;20068;-82
2023/05/04 05:59:04;;;;;;;16.92;7.97;;;7.70;99.90;;;;;;4942699;29;20174;-84
2023/05/04 06:01:29;;;;;;;17.25;7.68;;;7.80;99.90;;;;;;4958768;29;20032;-82
2023/05/04 06:03:55;;;;;;;14.85;7.72;;;7.80;99.90;;;;;;4941474;29;20114;-83
2023/05/04 06:06:21;;;;;;;17.38;8.20;;;7.90;99.90;;;;;;4941814;29;20337;-83
2023/05/04 06:08:46;;;;;;;16.25;7.93;;;7.90;99.90;;;;;;4941581;29;20043;-84
2023/05/04 06:11:12;;;;;;;15.40;7.47;;;8.00;99.90;;;;;;4941620;29;20372;-83
2023/05/04 06:13:38;;;;;;;19.65;7.80;;;8.00;99.90;;;;;;4959436;28;20119;-82
2023/05/04 06:16:04;;;;;;;23.45;8.50;;;8.10;99.90;;;;;;4954803;28;20070;-83
2023/05/04 06:18:30;;;;;;;15.40;8.38;;;8.10;99.90;;;;;;4953977;29;20077;-83
2023/05/04 06:20:59;;;;;;;14.65;7.78;;;8.20;99.90;;;;;;4958774;28;20122;-83
2023/05/04 06:23:28;;;;;;;17.27;8.80;;;8.30;99.90;;;;;;4958859;29;20043;-85
2023/05/04 06:25:53;;;;;;;15.88;8.55;;;8.30;99.90;;;;;;4942179;29;20122;-85
2023/05/04 06:28:19;;;;;;;14.00;8.18;;;8.40;99.90;;;;;;4941285;29;20518;-84
2023/05/04 06:30:45;;;;;;;21.42;8.30;;;8.40;99.90;;;;;;4941622;29;20467;-84
2023/05/04 06:33:11;;;;;;;23.40;8.90;;;8.50;99.90;;;;;;4958720;28;20455;-83
2023/05/04 06:35:36;;;;;;;19.00;8.05;;;8.50;99.90;;;;;;4940977;29;20043;-84
2023/05/04 06:38:02;;;;;;;16.15;7.45;;;8.60;99.90;;;;;;4958561;28;20043;-82
2023/05/04 06:40:28;;;;;;;15.50;8.00;;;8.70;99.90;;;;;;4940638;29;20379;-82
2023/05/04 06:42:53;;;;;;;15.55;7.78;;;8.70;99.90;;;;;;4940385;29;20043;-84
2023/05/04 06:45:19;;;;;;;16.58;7.80;;;8.70;99.90;;;;;;4924670;29;20117;-83
2023/05/04 06:47:46;;;;;;;15.05;7.93;;;8.80;99.90;;;;;;4958024;29;20501;-82
2023/05/04 06:50:12;;;;;;;15.55;7.50;;;9.00;99.90;;;;;;4940811;29;20058;-83
2023/05/04 06:52:39;;;;;;;14.75;8.10;;;9.00;99.90;;;;;;4940541;29;20043;-84
2023/05/04 06:55:06;;;;;;;12.43;6.90;;;9.10;99.90;;;;;;4940637;29;20055;-82
2023/05/04 06:57:32;;;;;;;13.68;7.85;;;9.20;99.90;;;;;;4940066;29;20035;-83
2023/05/04 06:59:58;;;;;;;16.40;7.57;;;9.30;99.90;;;;;;4940734;29;20102;-83
2023/05/04 07:02:24;;;;;;;14.32;7.78;;;9.40;99.90;;;;;;4940930;29;20106;-84
2023/05/04 07:04:51;;;;;;;15.75;7.30;;;9.50;99.90;;;;;;4925081;29;20499;-83
2023/05/04 07:07:17;;;;;;;15.25;7.32;;;9.60;99.90;;;;;;4940961;29;20344;-82
2023/05/04 07:09:43;;;;;;;13.30;7.35;;;9.70;99.90;;;;;;4957975;29;20047;-83
2023/05/04 07:12:09;;;;;;;14.77;7.45;;;9.80;99.90;;;;;;4940411;29;20078;-83
2023/05/04 07:14:34;;;;;;;14.50;6.93;;;9.80;99.90;;;;;;4940527;29;20455;-82
2023/05/04 07:17:00;;;;;;;15.05;7.90;;;9.90;99.90;;;;;;4957836;29;20119;-82
2023/05/04 07:19:26;;;;;;;13.23;7.20;;;10.00;99.90;;;;;;4940224;29;20039;-82
2023/05/04 07:21:52;;;;;;;16.17;7.07;;;10.00;99.90;;;;;;4957289;29;20121;-83
2023/05/04 07:24:17;;;;;;;15.90;7.50;;;10.10;99.90;;;;;;4939976;29;20054;-83
2023/05/04 07:26:43;;;;;;;16.35;7.38;;;10.20;99.90;;;;;;4957409;29;20043;-83
2023/05/04 07:29:09;;;;;;;15.05;6.90;;;10.20;99.90;;;;;;4924728;29;20079;-82
2023/05/04 07:31:34;;;;;;;12.77;7.38;;;10.30;99.90;;;;;;4940037;29;20177;-85
2023/05/04 07:34:01;;;;;;;13.98;7.05;;;10.40;99.90;;;;;;4940351;29;20050;-74
2023/05/04 07:36:26;;;;;;;11.32;7.07;;;10.50;99.90;;;;;;4963042;28;20038;-79
2023/05/04 07:38:53;;;;;;;13.93;6.68;;;10.60;99.90;;;;;;4948105;29;20028;-82
2023/05/04 07:41:19;;;;;;;14.65;6.93;;;10.70;99.90;;;;;;4939794;29;20050;-82
2023/05/04 07:43:45;;;;;;;15.68;7.35;;;10.80;99.90;;;;;;4955909;29;20058;-82
2023/05/04 07:46:12;;;;;;;16.90;6.75;;;11.00;99.90;;;;;;4939869;29;20054;-83
2023/05/04 07:48:37;;;;;;;13.27;6.75;;;11.10;99.90;;;;;;4944545;28;20042;-83
2023/05/04 07:51:03;;;;;;;10.15;6.45;;;11.20;99.90;;;;;;4945558;29;20054;-83
2023/05/04 07:53:29;;;;;;;10.32;6.15;;;11.40;99.90;;;;;;4939641;29;20443;-83
2023/05/04 07:55:59;;;;;;;11.95;6.15;;;11.50;99.90;;;;;;4957624;28;20384;-83
2023/05/04 07:58:25;;;;;;;12.30;6.38;;;11.60;99.90;;;;;;4958982;28;20443;-82
2023/05/04 08:00:51;;;;;;;13.85;6.47;;;11.70;99.90;;;;;;4976236;28;20074;-83
2023/05/04 08:03:17;;;;;;;23.08;8.15;;;11.90;99.90;;;;;;4958488;28;20042;-83
2023/05/04 08:05:43;;;;;;;11.07;6.30;;;12.00;99.90;;;;;;4958751;28;20046;-82
2023/05/04 08:08:12;;;;;;;14.30;6.65;;;12.10;99.90;;;;;;4976223;28;20038;-85
2023/05/04 08:10:38;;;;;;;12.63;6.53;;;12.20;99.90;;;;;;4957768;28;20042;-81
2023/05/04 08:13:04;;;;;;;15.98;7.00;;;12.20;99.90;;;;;;4976271;28;20379;-81
2023/05/04 08:15:30;;;;;;;12.88;6.10;;;12.30;99.90;;;;;;4958793;28;20399;-82
2023/05/04 08:17:55;;;;;;;13.05;6.05;;;12.40;99.90;;;;;;4958505;28;20038;-82
2023/05/04 08:20:21;;;;;;;13.60;6.40;;;12.40;99.90;;;;;;4958161;28;20043;-83
2023/05/04 08:22:46;;;;;;;15.50;6.07;;;12.60;99.90;;;;;;4958325;28;20051;-82
2023/05/04 08:25:12;;;;;;;15.13;5.90;;;12.70;99.90;;;;;;4958226;28;20081;-83
2023/05/04 08:27:38;;;;;;;14.02;6.30;;;12.90;99.90;;;;;;4975776;28;20043;-82
2023/05/04 08:30:06;;;;;;;13.35;6.40;;;13.20;99.90;;;;;;4958243;28;20121;-82
2023/05/04 08:32:32;;;;;;;11.23;5.95;;;13.30;99.90;;;;;;4975697;28;20078;-81
2023/05/04 08:34:57;;;;;;;12.43;6.38;;;13.30;99.90;;;;;;4957942;28;20511;-83
2023/05/04 08:37:23;;;;;;;16.02;6.10;;;13.40;99.90;;;;;;4974830;28;20034;-83
2023/05/04 08:39:49;;;;;;;10.50;5.55;;;13.50;99.90;;;;;;4976015;28;20474;-83
2023/05/04 08:42:30;;;;;;;11.93;5.50;;;13.60;99.90;;;;;;4958317;28;20074;-82
2023/05/04 08:44:57;;;;;;;10.48;6.00;;;13.70;99.90;;;;;;4958171;28;20068;-81
2023/05/04 08:47:27;;;;;;;12.93;5.95;;;13.80;99.90;;;;;;4958183;28;20053;-82
2023/05/04 08:49:55;;;;;;;19.70;6.95;;;14.10;99.90;;;;;;4975763;28;20390;-83
2023/05/04 08:52:25;;;;;;;9.55;5.32;;;14.40;99.90;;;;;;4957935;28;20051;-82
2023/05/04 08:54:56;;;;;;;10.13;5.90;;;14.50;99.90;;;;;;4975129;28;20078;-84
2023/05/04 08:57:22;;;;;;;11.27;5.00;;;14.70;99.90;;;;;;4958403;28;20050;-82
2023/05/04 08:59:52;;;;;;;16.58;5.15;;;14.80;99.90;;;;;;4975788;28;20035;-82
2023/05/04 09:02:22;;;;;;;10.85;5.97;;;15.00;99.90;;;;;;4959088;28;20053;-81
2023/05/04 09:04:51;;;;;;;9.38;5.50;;;15.00;99.90;;;;;;4977212;28;20117;-80
2023/05/04 09:07:18;;;;;;;13.57;5.68;;;15.00;99.90;;;;;;4965551;28;20081;-80
2023/05/04 09:09:46;;;;;;;11.20;5.30;;;15.10;99.90;;;;;;4985403;28;20505;-83
2023/05/04 09:12:12;;;;;;;11.57;5.30;;;15.30;99.90;;;;;;4969921;28;20054;-82
2023/05/04 09:14:38;;;;;;;14.30;5.07;;;15.40;99.90;;;;;;4967795;28;20098;-80
2023/05/04 09:17:16;;;;;;;9.25;5.15;;;15.60;99.90;;;;;;4971574;28;20074;-81
2023/05/04 09:19:43;;;;;;;14.25;5.80;;;15.80;99.90;;;;;;4967967;28;20053;-82
2023/05/04 09:22:16;;;;;;;13.95;5.72;;;16.00;99.90;;;;;;4958639;28;20049;-81
2023/05/04 09:24:42;;;;;;;9.63;5.22;;;16.10;99.90;;;;;;4958584;28;20043;-82
2023/05/04 09:27:12;;;;;;;10.05;5.07;;;16.10;99.90;;;;;;4957798;28;20056;-81
2023/05/04 09:29:39;;;;;;;10.38;5.05;;;16.20;99.90;;;;;;4957669;28;20042;-82
2023/05/04 09:32:11;;;;;;;12.35;5.13;;;16.40;99.90;;;;;;4957601;28;20134;-81
2023/05/04 09:34:45;;;;;;;14.25;5.20;;;16.60;99.90;;;;;;4957245;28;20035;-82
2023/05/04 09:37:10;;;;;;;10.13;4.85;;;16.80;99.90;;;;;;4957620;28;20390;-83
2023/05/04 09:39:36;;;;;;;10.95;4.68;;;17.00;99.90;;;;;;4957480;28;20047;-80
2023/05/04 09:42:03;;;;;;;11.48;4.75;;;17.20;99.90;;;;;;4974543;28;20042;-80
2023/05/04 09:44:29;;;;;;;8.25;4.13;;;17.40;99.90;;;;;;4974739;28;20039;-80
2023/05/04 09:46:57;;;;;;;8.65;4.30;;;17.50;99.90;;;;;;4974349;28;20054;-81
2023/05/04 09:49:33;;;;;;;8.80;3.60;;;17.60;99.90;;;;;;4957249;28;20479;-81
2023/05/04 09:52:02;;;;;;;10.40;3.88;;;17.80;99.90;;;;;;4956907;28;20462;-82
2023/05/04 09:54:33;;;;;;;6.97;3.25;;;18.00;99.90;;;;;;4957499;28;20039;-81
2023/05/04 09:57:21;;;;;;;6.50;3.72;;;18.00;99.90;;;;;;4957243;28;20173;-80
2023/05/04 09:59:48;;;;;;;7.90;3.95;;;18.10;99.90;;;;;;4957435;28;20081;-81
2023/05/04 10:02:13;;;;;;;12.68;3.70;;;18.10;99.90;;;;;;4956840;28;20057;-81
2023/05/04 10:04:42;;;;;;;7.10;3.33;;;18.10;99.90;;;;;;4957217;28;20050;-81
2023/05/04 10:07:08;;;;;;;7.40;3.63;;;18.20;99.90;;;;;;4957584;28;20161;-81
2023/05/04 10:09:34;;;;;;;7.35;3.70;;;18.10;99.90;;;;;;4957083;28;20039;-82
2023/05/04 10:12:01;;;;;;;10.68;3.40;;;18.10;99.90;;;;;;4956669;28;20049;-81
2023/05/04 10:14:31;;;;;;;8.20;3.80;;;18.20;99.90;;;;;;4941047;28;20125;-80
2023/05/04 10:17:05;;;;;;;11.73;4.00;;;18.30;99.90;;;;;;4940965;28;20074;-80
2023/05/04 10:20:00;;;;;;;7.55;2.97;;;18.40;99.90;;;;;;4957218;28;20046;-79
2023/05/04 10:23:09;;;;;;;8.05;3.45;;;18.60;99.90;;;;;;4974253;28;20050;-80
2023/05/04 10:26:08;;;;;;;8.25;2.88;;;18.80;99.90;;;;;;4974180;28;20462;-81
2023/05/04 10:28:41;;;;;;;6.15;3.10;;;19.00;99.90;;;;;;4974110;28;20553;-82
2023/05/04 10:31:08;;;;;;;8.43;3.95;;;19.10;99.90;;;;;;4957047;28;20061;-83
2023/05/04 10:33:40;;;;;;;9.13;3.40;;;19.10;99.90;;;;;;4976948;28;20050;-81
2023/05/04 10:36:07;;;;;;;13.15;3.45;;;19.10;99.90;;;;;;4960329;28;20046;-84
2023/05/04 10:38:37;;;;;;;6.25;2.92;;;19.00;99.40;;;;;;4960243;28;20039;-83
2023/05/04 10:41:17;;;;;;;7.97;3.13;;;19.00;99.00;;;;;;4960193;28;20151;-84
2023/05/04 10:43:47;;;;;;;11.75;3.33;;;19.00;98.80;;;;;;4961157;28;20117;-82
2023/05/04 10:46:17;;;;;;;8.65;3.40;;;19.30;99.40;;;;;;4960685;28;20039;-84
2023/05/04 10:48:43;;;;;;;13.43;3.72;;;19.40;99.00;;;;;;4978394;28;20089;-82
2023/05/04 10:51:18;;;;;;;10.07;3.22;;;19.50;98.80;;;;;;4961082;28;20077;-83
2023/05/04 10:53:43;;;;;;;9.60;3.83;;;19.60;98.20;;;;;;4960650;28;20122;-83
2023/05/04 10:56:22;;;;;;;6.47;3.28;;;19.60;98.40;;;;;;4960216;28;20503;-83
2023/05/04 10:58:48;;;;;;;8.23;3.60;;;19.70;97.50;;;;;;4959707;28;20506;-83
2023/05/04 11:01:15;;;;;;;7.55;3.60;;;19.70;98.20;;;;;;4959860;28;20057;-82
2023/05/04 11:03:40;;;;;;;8.00;3.90;;;19.80;97.70;;;;;;4977949;28;20368;-82
2023/05/04 11:06:23;;;;;;;11.45;3.88;;;19.90;97.50;;;;;;4960154;28;20105;-82
2023/05/04 11:08:58;;;;;;;7.43;3.58;;;20.10;97.00;;;;;;4959995;28;20047;-83
2023/05/04 11:11:24;;;;;;;8.70;3.72;;;20.20;96.00;;;;;;4977487;28;20051;-83
2023/05/04 11:13:51;;;;;;;8.48;3.60;;;20.30;96.40;;;;;;4959895;28;20450;-83
2023/05/04 11:16:24;;;;;;;7.50;3.20;;;20.40;95.80;;;;;;4977906;28;20352;-82
2023/05/04 11:18:50;;;;;;;5.93;3.28;;;20.60;94.90;;;;;;4959976;28;20043;-82
2023/05/04 11:21:28;;;;;;;7.93;3.10;;;20.80;94.80;;;;;;4959421;28;20135;-82
2023/05/04 11:23:57;;;;;;;7.90;3.30;;;21.00;93.90;;;;;;4943384;29;20055;-81
2023/05/04 11:26:24;;;;;;;4.80;3.10;;;21.20;93.90;;;;;;4940815;29;20424;-81
2023/05/04 11:28:50;;;;;;;7.60;3.13;;;21.30;93.30;;;;;;4940612;29;20055;-81
2023/05/04 11:31:17;;;;;;;6.88;3.45;;;21.50;92.90;;;;;;4940187;29;20047;-82
2023/05/04 11:33:51;;;;;;;6.75;3.40;;;21.50;92.00;;;;;;4940164;29;20039;-82
2023/05/04 11:36:18;;;;;;;7.90;3.30;;;21.40;90.60;;;;;;4940128;29;20455;-82
2023/05/04 11:38:44;;;;;;;7.78;3.40;;;21.50;90.90;;;;;;4957476;29;20043;-83
2023/05/04 11:41:11;;;;;;;7.07;3.38;;;21.40;90.40;;;;;;4940349;29;20046;-82
2023/05/04 11:43:38;;;;;;;8.23;3.53;;;21.50;90.20;;;;;;4957569;28;20054;-83
2023/05/04 11:46:05;;;;;;;7.50;3.10;;;21.40;88.00;;;;;;4924423;29;20177;-83
2023/05/04 11:48:32;;;;;;;8.65;3.10;;;21.30;86.20;;;;;;4952681;29;20476;-83
2023/05/04 11:50:58;;;;;;;9.65;3.17;;;21.30;86.80;;;;;;4937928;29;20079;-82
2023/05/04 11:53:24;;;;;;;6.63;3.20;;;21.40;87.20;;;;;;4947321;29;20444;-85
2023/05/04 11:55:53;;;;;;;11.30;3.30;;;21.50;86.80;;;;;;4957348;29;20043;-84
2023/05/04 11:58:24;;;;;;;8.13;3.10;;;21.80;87.10;;;;;;4939689;29;20155;-83
2023/05/04 12:00:54;;;;;;;11.50;3.50;;;21.80;85.00;;;;;;4957302;28;20043;-84
2023/05/04 12:03:33;;;;;;;6.00;3.22;;;21.80;83.90;;;;;;4957215;29;20070;-82
2023/05/04 12:06:01;;;;;;;8.82;3.35;;;21.80;84.80;;;;;;4940166;29;20396;-82
2023/05/04 12:08:33;;;;;;;7.13;3.08;;;21.90;84.20;;;;;;4939721;29;20039;-84
2023/05/04 12:11:24;;;;;;;6.55;2.70;;;22.00;83.90;;;;;;4938811;29;20050;-83
2023/05/04 12:14:05;;;;;;;9.88;3.03;;;22.10;83.70;;;;;;4957177;29;20118;-85
2023/05/04 12:16:32;;;;;;;5.72;3.33;;;22.20;82.60;;;;;;4939440;29;20051;-83
2023/05/04 12:19:09;;;;;;;5.38;3.30;;;22.30;81.50;;;;;;4949252;28;20070;-83
2023/05/04 12:21:35;;;;;;;7.65;3.00;;;22.30;77.90;;;;;;4958720;28;20133;-83
2023/05/04 12:24:02;;;;;;;6.95;2.78;;;22.30;79.10;;;;;;4959125;28;20398;-84
2023/05/04 12:26:28;;;;;;;6.60;2.85;;;22.50;80.40;;;;;;4958070;28;20050;-82
2023/05/04 12:28:55;;;;;;;7.88;3.30;;;22.50;78.30;;;;;;4957961;28;20049;-81
2023/05/04 12:31:21;;;;;;;7.78;2.90;;;22.50;77.80;;;;;;4958422;28;20047;-83
2023/05/04 12:33:49;;;;;;;8.15;3.40;;;22.50;78.00;;;;;;4958776;28;20066;-82
2023/05/04 12:36:15;;;;;;;7.10;2.90;;;22.60;78.20;;;;;;4975513;28;20121;-83
2023/05/04 12:38:41;;;;;;;11.65;3.13;;;22.60;77.60;;;;;;4942085;28;20136;-85
2023/05/04 12:41:09;;;;;;;4.50;2.63;;;22.70;77.20;;;;;;4958150;28;20090;-81
2023/05/04 12:43:35;;;;;;;7.75;3.05;;;22.90;76.90;;;;;;4975580;28;20062;-82
2023/05/04 12:46:01;;;;;;;9.02;2.92;;;23.00;76.00;;;;;;4957959;28;20098;-80
2023/05/04 12:48:30;;;;;;;4.45;2.78;;;23.00;76.40;;;;;;4975286;28;20046;-82
2023/05/04 12:50:57;;;;;;;7.30;3.00;;;23.10;74.60;;;;;;4958294;28;20479;-78
2023/05/04 12:53:26;;;;;;;8.45;2.65;;;23.10;74.30;;;;;;4957885;28;20043;-82
2023/05/04 12:55:52;;;;;;;5.78;2.92;;;23.20;75.00;;;;;;4962484;28;20045;-82
2023/05/04 12:58:18;;;;;;;5.75;2.92;;;23.00;73.40;;;;;;4938414;29;20122;-81
2023/05/04 13:00:44;;;;;;;6.15;3.20;;;22.90;72.90;;;;;;4955755;28;20389;-83
2023/05/04 13:03:11;;;;;;;6.15;2.92;;;22.80;72.60;;;;;;4938755;29;20043;-83
2023/05/04 13:05:37;;;;;;;7.63;2.88;;;22.80;72.90;;;;;;4956186;29;20117;-81
2023/05/04 13:08:03;;;;;;;6.72;2.70;;;23.00;73.40;;;;;;4955683;29;20463;-81
2023/05/04 13:10:29;;;;;;;5.88;3.22;;;23.30;73.90;;;;;;4955205;29;20047;-83
2023/05/04 13:12:58;;;;;;;8.43;3.10;;;23.30;71.70;;;;;;4923631;29;20487;-81
2023/05/04 13:15:24;;;;;;;5.88;2.75;;;23.40;71.10;;;;;;4945951;29;20110;-83
2023/05/04 13:17:52;;;;;;;8.90;3.70;;;23.40;70.90;;;;;;4939672;29;20471;-82
2023/05/04 13:20:18;;;;;;;8.18;2.65;;;23.40;70.20;;;;;;4939632;28;20403;-82
2023/05/04 13:22:46;;;;;;;5.63;3.40;;;23.40;70.20;;;;;;4955361;29;20119;-81
2023/05/04 13:25:12;;;;;;;5.43;2.92;;;23.50;69.60;;;;;;4937853;29;20075;-74
2023/05/04 13:27:37;;;;;;;5.78;3.20;;;23.70;70.40;;;;;;4938155;29;20101;-81
2023/05/04 13:30:03;;;;;;;7.93;3.53;;;23.60;69.60;;;;;;4922283;29;20043;-81
2023/05/04 13:32:30;;;;;;;5.85;2.90;;;23.70;69.50;;;;;;4937750;29;20047;-82
2023/05/04 13:34:56;;;;;;;8.60;3.55;;;23.80;68.90;;;;;;4922731;29;20047;-80
2023/05/04 13:37:22;;;;;;;7.25;3.38;;;23.80;68.30;;;;;;4938070;29;20054;-82
2023/05/04 13:39:48;;;;;;;8.20;3.33;;;23.60;68.80;;;;;;4955334;28;20036;-83
2023/05/04 13:42:14;;;;;;;7.45;3.25;;;23.60;69.20;;;;;;4939314;29;20097;-84
2023/05/04 13:44:48;;;;;;;6.22;2.85;;;23.60;68.10;;;;;;4955164;28;20054;-83
2023/05/04 13:47:17;;;;;;;6.15;3.08;;;23.50;67.20;;;;;;4955495;29;20031;-80
2023/05/04 13:49:43;;;;;;;6.60;2.72;;;23.60;67.40;;;;;;4938270;29;20039;-79
2023/05/04 13:52:09;;;;;;;6.05;2.97;;;23.60;68.10;;;;;;4937368;29;20550;-77
2023/05/04 13:54:36;;;;;;;6.93;3.30;;;23.50;67.70;;;;;;4972313;28;20031;-82
2023/05/04 13:57:01;;;;;;;5.90;3.28;;;23.60;67.70;;;;;;4974690;28;20042;-82
2023/05/04 13:59:28;;;;;;;6.63;3.25;;;23.80;67.60;;;;;;4957212;28;20442;-82
2023/05/04 14:01:53;;;;;;;8.48;3.28;;;23.80;66.90;;;;;;4957156;28;20042;-80
2023/05/04 14:04:19;;;;;;;7.65;2.63;;;23.90;66.30;;;;;;4956934;28;20043;-82
2023/05/04 14:06:52;;;;;;;7.45;3.55;;;24.10;67.10;;;;;;4974357;28;20059;-81
2023/05/04 14:09:19;;;;;;;8.07;3.58;;;24.10;65.80;;;;;;4960612;28;20054;-81
2023/05/04 14:11:45;;;;;;;5.53;3.15;;;24.10;65.20;;;;;;4977894;28;20045;-82
2023/05/04 14:14:11;;;;;;;5.57;3.13;;;23.90;65.00;;;;;;4975163;28;20067;-82
2023/05/04 14:16:36;;;;;;;7.85;3.33;;;23.70;65.10;;;;;;4958673;29;20390;-80
2023/05/04 14:19:02;;;;;;;6.50;3.20;;;23.80;66.20;;;;;;4958616;29;20495;-80
2023/05/04 14:21:28;;;;;;;7.13;3.20;;;23.90;66.00;;;;;;4957609;29;20471;-85
2023/05/04 14:23:53;;;;;;;8.20;2.92;;;24.20;66.00;;;;;;4941065;29;20054;-81
2023/05/04 14:26:19;;;;;;;7.53;3.47;;;24.40;65.80;;;;;;4925944;29;20054;-82
2023/05/04 14:28:45;;;;;;;6.90;3.33;;;24.40;64.80;;;;;;4958533;29;20046;-80
2023/05/04 14:31:11;;;;;;;6.25;2.75;;;24.40;64.20;;;;;;4941038;29;20411;-81
2023/05/04 14:33:39;;;;;;;4.97;3.28;;;24.40;64.20;;;;;;4958915;28;20035;-83
2023/05/04 14:36:05;;;;;;;5.85;2.95;;;24.10;64.50;;;;;;4940994;29;20447;-81
2023/05/04 14:38:31;;;;;;;7.40;3.35;;;24.10;64.00;;;;;;4958425;29;20035;-82
2023/05/04 14:40:57;;;;;;;6.60;3.30;;;24.00;63.80;;;;;;4924660;29;20045;-82
2023/05/04 14:43:23;;;;;;;7.10;3.28;;;23.80;63.20;;;;;;4958217;29;20035;-83
2023/05/04 14:45:49;;;;;;;4.95;3.05;;;23.60;63.80;;;;;;4958290;28;20045;-82
2023/05/04 14:48:16;;;;;;;5.57;3.50;;;23.40;63.80;;;;;;4957512;28;20446;-80
2023/05/04 14:50:42;;;;;;;6.82;3.08;;;23.50;64.30;;;;;;4957539;28;20074;-81
2023/05/04 14:53:08;;;;;;;7.85;3.03;;;23.50;64.60;;;;;;4940510;29;20055;-82
2023/05/04 14:55:38;;;;;;;10.18;3.45;;;23.60;65.20;;;;;;4940471;29;20047;-81
2023/05/04 14:58:04;;;;;;;5.13;3.08;;;23.60;65.10;;;;;;4940939;29;20087;-82
2023/05/04 15:00:29;;;;;;;5.70;3.55;;;23.60;65.00;;;;;;4941177;28;20051;-81
2023/05/04 15:02:55;;;;;;;7.07;3.08;;;23.60;65.50;;;;;;4924834;29;20055;-82
2023/05/04 15:05:21;;;;;;;8.35;3.55;;;23.40;65.20;;;;;;4940675;29;20071;-81
2023/05/04 15:07:47;;;;;;;8.23;3.03;;;23.40;63.60;;;;;;4940284;29;20399;-81
2023/05/04 15:10:13;;;;;;;5.97;3.60;;;23.40;64.10;;;;;;4943655;28;20045;-81
2023/05/04 15:12:39;;;;;;;10.85;4.18;;;23.50;64.70;;;;;;4959406;28;20072;-72
2023/05/04 15:15:05;;;;;;;7.25;3.97;;;23.70;64.80;;;;;;4941840;29;20047;-84
2023/05/04 15:17:32;;;;;;;6.25;3.80;;;23.80;64.50;;;;;;4957446;29;20399;-81
2023/05/04 15:20:00;;;;;;;9.70;4.03;;;23.90;64.50;;;;;;4940555;29;20047;-81
2023/05/04 15:22:26;;;;;;;10.45;3.80;;;24.10;64.60;;;;;;4957331;29;20062;-82
2023/05/04 15:24:52;;;;;;;9.27;4.10;;;24.10;63.80;;;;;;4957554;29;20102;-81
2023/05/04 15:27:18;;;;;;;9.65;4.35;;;24.00;63.40;;;;;;4940020;29;20051;-82
2023/05/04 15:29:44;;;;;;;5.60;3.85;;;23.90;64.20;;;;;;4940361;29;20126;-83
2023/05/04 15:32:10;;;;;;;10.27;3.90;;;24.00;64.20;;;;;;4940296;29;20074;-85
2023/05/04 15:34:36;;;;;;;7.50;4.47;;;23.90;63.80;;;;;;4940199;29;20047;-85
2023/05/04 15:37:01;;;;;;;7.53;3.28;;;23.80;63.90;;;;;;4957514;28;20057;-83
2023/05/04 15:39:27;;;;;;;10.05;3.40;;;23.60;64.30;;;;;;4957902;29;20035;-85
2023/05/04 15:41:56;;;;;;;8.63;4.00;;;23.50;64.40;;;;;;4924873;29;20050;-84
2023/05/04 15:44:23;;;;;;;5.50;3.50;;;23.40;65.00;;;;;;4940270;29;20046;-86
2023/05/04 15:46:48;;;;;;;9.48;3.63;;;23.30;65.00;;;;;;4939845;29;20051;-83